East Maine, New York
Current Conditions -  °F | °C
As of 5:53 PM on Sunday 21 Dec 2014 (Local Time) from KBGM Reporting Station
Overcast Overcast  
Wind Chill: -3°   Ceiling: 1800
Heat Index: -3°   Visibility: 10mi
Dew Point: -7°   Wind: 0mph
Humidity: 75%   Direction: NA
Pressure: 30.25"   Gusts: NA
Location:  42.1768°N, 76.0035°W
Report Text: KBGM 212253Z 00000KT 10SM OVC018 M03/M07 A3025 RMK AO2 SLP267 T10281067
Loading
Personal Weather Stations






























Interactive Weather Map New forecast layout! Learn more

10-Day Weather Forecast

Advertisements
Track Severe Weather on mobile